sensor_id;sensor_type;location;lat;lon;timestamp;P1;durP1;ratioP1;P2;durP2;ratioP2
76710;SDS011;65639;44.498;0.166;2022-12-18T00:06:22;30.10;;;21.27;;
76710;SDS011;65639;44.498;0.166;2022-12-18T00:23:33;35.50;;;23.00;;
76710;SDS011;65639;44.498;0.166;2022-12-18T00:40:41;36.13;;;22.60;;
76710;SDS011;65639;44.498;0.166;2022-12-18T00:57:51;37.30;;;23.80;;
76710;SDS011;65639;44.498;0.166;2022-12-18T01:14:59;36.93;;;24.43;;
76710;SDS011;65639;44.498;0.166;2022-12-18T01:32:09;38.83;;;24.20;;
76710;SDS011;65639;44.498;0.166;2022-12-18T01:49:19;39.87;;;24.30;;
76710;SDS011;65639;44.498;0.166;2022-12-18T02:06:29;35.57;;;21.83;;
76710;SDS011;65639;44.498;0.166;2022-12-18T02:23:42;38.47;;;22.83;;
76710;SDS011;65639;44.498;0.166;2022-12-18T02:40:48;32.70;;;20.03;;
76710;SDS011;65639;44.498;0.166;2022-12-18T02:57:58;32.60;;;21.17;;
76710;SDS011;65639;44.498;0.166;2022-12-18T03:15:08;34.67;;;19.60;;
76710;SDS011;65639;44.498;0.166;2022-12-18T03:32:16;28.03;;;15.40;;
76710;SDS011;65639;44.498;0.166;2022-12-18T03:49:25;34.80;;;19.53;;
76710;SDS011;65639;44.498;0.166;2022-12-18T04:06:35;33.73;;;18.57;;
76710;SDS011;65639;44.498;0.166;2022-12-18T04:23:43;30.30;;;16.87;;
76710;SDS011;65639;44.498;0.166;2022-12-18T04:40:51;33.97;;;18.57;;
76710;SDS011;65639;44.498;0.166;2022-12-18T04:58:01;31.00;;;15.97;;
76710;SDS011;65639;44.498;0.166;2022-12-18T05:15:10;27.30;;;15.87;;
76710;SDS011;65639;44.498;0.166;2022-12-18T05:32:19;27.70;;;14.37;;
76710;SDS011;65639;44.498;0.166;2022-12-18T05:49:29;23.70;;;13.20;;
76710;SDS011;65639;44.498;0.166;2022-12-18T06:06:40;17.37;;;11.87;;
76710;SDS011;65639;44.498;0.166;2022-12-18T06:23:48;17.33;;;11.27;;
76710;SDS011;65639;44.498;0.166;2022-12-18T06:40:58;12.80;;;8.87;;
76710;SDS011;65639;44.498;0.166;2022-12-18T06:58:07;15.57;;;10.80;;
76710;SDS011;65639;44.498;0.166;2022-12-18T07:15:17;15.10;;;10.00;;
76710;SDS011;65639;44.498;0.166;2022-12-18T07:32:27;12.03;;;8.47;;
76710;SDS011;65639;44.498;0.166;2022-12-18T07:49:36;14.30;;;9.97;;
76710;SDS011;65639;44.498;0.166;2022-12-18T08:06:46;12.97;;;8.37;;
76710;SDS011;65639;44.498;0.166;2022-12-18T08:24:03;14.57;;;9.87;;
76710;SDS011;65639;44.498;0.166;2022-12-18T08:41:11;9.03;;;7.20;;
76710;SDS011;65639;44.498;0.166;2022-12-18T08:58:21;9.53;;;8.07;;
76710;SDS011;65639;44.498;0.166;2022-12-18T09:15:33;9.87;;;7.30;;
76710;SDS011;65639;44.498;0.166;2022-12-18T09:32:43;7.73;;;6.17;;
76710;SDS011;65639;44.498;0.166;2022-12-18T09:49:52;7.13;;;5.80;;
76710;SDS011;65639;44.498;0.166;2022-12-18T10:07:03;8.17;;;5.73;;
76710;SDS011;65639;44.498;0.166;2022-12-18T10:24:16;6.37;;;4.60;;
76710;SDS011;65639;44.498;0.166;2022-12-18T10:41:27;6.13;;;4.97;;
76710;SDS011;65639;44.498;0.166;2022-12-18T10:58:38;6.20;;;4.20;;
76710;SDS011;65639;44.498;0.166;2022-12-18T11:15:50;4.87;;;4.17;;
76710;SDS011;65639;44.498;0.166;2022-12-18T11:33:01;5.27;;;3.90;;
76710;SDS011;65639;44.498;0.166;2022-12-18T11:50:12;4.30;;;3.90;;
76710;SDS011;65639;44.498;0.166;2022-12-18T12:07:24;3.97;;;3.57;;
76710;SDS011;65639;44.498;0.166;2022-12-18T12:24:36;4.90;;;3.90;;
76710;SDS011;65639;44.498;0.166;2022-12-18T12:41:46;4.37;;;3.83;;
76710;SDS011;65639;44.498;0.166;2022-12-18T12:58:48;4.33;;;3.93;;
76710;SDS011;65639;44.498;0.166;2022-12-18T13:16:03;4.53;;;4.10;;
76710;SDS011;65639;44.498;0.166;2022-12-18T13:50:20;4.43;;;3.60;;
76710;SDS011;65639;44.498;0.166;2022-12-18T14:07:31;5.53;;;3.63;;
76710;SDS011;65639;44.498;0.166;2022-12-18T14:24:39;3.43;;;3.13;;
76710;SDS011;65639;44.498;0.166;2022-12-18T14:41:48;3.33;;;2.60;;
76710;SDS011;65639;44.498;0.166;2022-12-18T14:58:50;4.60;;;3.27;;
76710;SDS011;65639;44.498;0.166;2022-12-18T15:15:55;4.30;;;3.77;;
76710;SDS011;65639;44.498;0.166;2022-12-18T15:50:15;5.37;;;4.50;;
76710;SDS011;65639;44.498;0.166;2022-12-18T16:07:21;8.20;;;4.70;;
76710;SDS011;65639;44.498;0.166;2022-12-18T16:24:30;7.63;;;4.63;;
76710;SDS011;65639;44.498;0.166;2022-12-18T16:41:40;6.27;;;5.00;;
76710;SDS011;65639;44.498;0.166;2022-12-18T16:58:50;5.50;;;4.10;;
76710;SDS011;65639;44.498;0.166;2022-12-18T17:16:01;7.07;;;4.60;;
76710;SDS011;65639;44.498;0.166;2022-12-18T17:33:08;7.70;;;5.50;;
76710;SDS011;65639;44.498;0.166;2022-12-18T17:50:19;7.93;;;5.90;;
76710;SDS011;65639;44.498;0.166;2022-12-18T18:07:27;7.57;;;6.50;;
76710;SDS011;65639;44.498;0.166;2022-12-18T18:24:36;5.90;;;5.13;;
76710;SDS011;65639;44.498;0.166;2022-12-18T18:41:44;8.33;;;5.03;;
76710;SDS011;65639;44.498;0.166;2022-12-18T18:58:54;7.50;;;5.70;;
76710;SDS011;65639;44.498;0.166;2022-12-18T19:16:04;9.67;;;7.03;;
76710;SDS011;65639;44.498;0.166;2022-12-18T19:33:12;11.37;;;7.57;;
76710;SDS011;65639;44.498;0.166;2022-12-18T19:50:22;10.20;;;6.57;;
76710;SDS011;65639;44.498;0.166;2022-12-18T20:07:32;13.00;;;8.30;;
76710;SDS011;65639;44.498;0.166;2022-12-18T20:24:40;9.77;;;5.73;;
76710;SDS011;65639;44.498;0.166;2022-12-18T20:41:50;13.67;;;7.37;;
76710;SDS011;65639;44.498;0.166;2022-12-18T20:59:00;10.87;;;5.73;;
76710;SDS011;65639;44.498;0.166;2022-12-18T21:16:10;11.07;;;6.00;;
76710;SDS011;65639;44.498;0.166;2022-12-18T21:33:20;10.23;;;5.50;;
76710;SDS011;65639;44.498;0.166;2022-12-18T21:50:32;11.67;;;5.90;;
76710;SDS011;65639;44.498;0.166;2022-12-18T22:07:39;11.57;;;6.90;;
76710;SDS011;65639;44.498;0.166;2022-12-18T22:24:48;13.87;;;7.33;;
76710;SDS011;65639;44.498;0.166;2022-12-18T22:41:59;13.37;;;6.40;;
76710;SDS011;65639;44.498;0.166;2022-12-18T22:59:11;14.17;;;6.40;;
76710;SDS011;65639;44.498;0.166;2022-12-18T23:16:23;12.30;;;5.70;;
76710;SDS011;65639;44.498;0.166;2022-12-18T23:33:28;9.20;;;4.97;;
76710;SDS011;65639;44.498;0.166;2022-12-18T23:50:38;14.27;;;5.13;;
